Time;durP1;ratioP1;P1;durP2;ratioP2;P2;SDS_P1;SDS_P2;PMS_P1;PMS_P2;Temp;Humidity;BMP_temperature;BMP_pressure;BME280_temperature;BME280_humidity;BME280_pressure;Samples;Min_cycle;Max_cycle;Signal;HPM_P1;HPM_P2
2022/05/03 00:00:36;;;;;;;10.23;8.30;;;14.70;99.90;;;;;;5075346;28;20417;-76
2022/05/03 00:03:24;;;;;;;10.47;8.30;;;14.70;99.90;;;;;;5074726;28;20500;-76
2022/05/03 00:06:11;;;;;;;14.13;8.37;;;14.80;99.90;;;;;;5073917;28;20435;-76
2022/05/03 00:09:27;;;;;;;17.53;8.27;;;14.80;99.90;;;;;;5075062;28;20436;-77
2022/05/03 00:12:05;;;;;;;12.13;8.43;;;14.80;99.90;;;;;;5079131;28;20463;-77
2022/05/03 00:14:57;;;;;;;11.00;7.37;;;14.80;99.90;;;;;;5074533;28;20420;-76
2022/05/03 00:17:24;;;;;;;16.53;8.60;;;14.90;99.90;;;;;;5053969;28;20433;-76
2022/05/03 00:19:51;;;;;;;13.00;7.90;;;14.90;99.90;;;;;;5074593;28;20467;-77
2022/05/03 00:22:45;;;;;;;9.27;7.40;;;14.90;99.90;;;;;;5075286;28;20393;-86
2022/05/03 00:28:33;;;;;;;10.40;7.87;;;14.90;99.90;;;;;;5074904;28;20436;-86
2022/05/03 00:34:21;;;;;;;13.07;7.70;;;14.80;99.90;;;;;;5070078;28;20930;-86
2022/05/03 00:37:09;;;;;;;11.87;8.00;;;14.80;99.90;;;;;;5054275;28;20418;-76
2022/05/03 00:39:35;;;;;;;11.43;8.60;;;14.80;99.90;;;;;;5057658;28;20410;-77
2022/05/03 00:42:39;;;;;;;16.37;8.57;;;14.80;99.90;;;;;;5074572;28;20414;-76
2022/05/03 00:45:21;;;;;;;13.27;8.50;;;14.70;99.90;;;;;;5062691;28;20644;-76
2022/05/03 00:47:54;;;;;;;11.40;8.47;;;14.70;99.90;;;;;;5074281;28;20932;-76
2022/05/03 00:50:42;;;;;;;11.67;8.43;;;14.70;99.90;;;;;;5073979;28;20478;-77
2022/05/03 01:00:07;;;;;;;21.17;8.63;;;14.60;99.90;;;;;;5074100;28;20485;-86
2022/05/03 01:03:21;;;;;;;13.77;8.80;;;14.60;99.90;;;;;;5073341;28;20441;-86
2022/05/03 01:06:15;;;;;;;13.33;9.30;;;14.60;99.90;;;;;;5073464;28;20433;-82
2022/05/03 01:09:19;;;;;;;13.20;8.27;;;14.60;99.90;;;;;;5073559;28;20425;-86
2022/05/03 01:12:06;;;;;;;11.13;7.70;;;14.60;99.90;;;;;;5072992;28;20468;-86
2022/05/03 01:15:10;;;;;;;14.07;8.50;;;14.60;99.90;;;;;;5073996;28;20973;-86
2022/05/03 01:17:43;;;;;;;11.20;8.63;;;14.60;99.90;;;;;;5072660;28;20417;-86
2022/05/03 01:20:13;;;;;;;12.37;8.50;;;14.60;99.90;;;;;;5069421;28;20440;-86
2022/05/03 01:29:31;;;;;;;12.90;8.20;;;14.60;99.90;;;;;;5066217;28;20965;-86
2022/05/03 01:32:05;;;;;;;10.90;8.00;;;14.50;99.90;;;;;;5076791;28;20460;-86
2022/05/03 01:38:09;;;;;;;12.20;8.47;;;14.50;99.90;;;;;;5074340;28;20451;-76
2022/05/03 01:41:10;;;;;;;10.23;7.83;;;14.50;99.90;;;;;;5065284;28;20476;-76
2022/05/03 01:44:01;;;;;;;11.53;8.80;;;14.50;99.90;;;;;;5073515;28;20416;-76
2022/05/03 01:46:39;;;;;;;10.80;8.37;;;14.50;99.90;;;;;;5073105;28;20399;-76
2022/05/03 01:52:42;;;;;;;11.80;9.27;;;14.40;99.90;;;;;;5073956;28;20412;-77
2022/05/03 01:55:44;;;;;;;12.17;8.63;;;14.40;99.90;;;;;;5073210;28;20413;-77
2022/05/03 01:59:06;;;;;;;15.13;8.77;;;14.40;99.90;;;;;;5000750;28;20427;-77
2022/05/03 02:01:45;;;;;;;14.97;8.70;;;14.40;99.90;;;;;;4990084;28;20429;-76
2022/05/03 02:04:56;;;;;;;15.83;9.97;;;14.30;99.90;;;;;;4991885;28;20424;-77
2022/05/03 02:07:43;;;;;;;14.90;9.60;;;14.30;99.90;;;;;;4992556;28;20431;-77
2022/05/03 02:10:53;;;;;;;12.90;9.00;;;14.30;99.90;;;;;;4991518;28;21084;-76
2022/05/03 02:13:21;;;;;;;14.77;9.07;;;14.20;99.90;;;;;;4991812;28;20528;-76
2022/05/03 02:15:49;;;;;;;13.50;9.37;;;14.20;99.90;;;;;;4992001;28;20433;-76
2022/05/03 02:18:26;;;;;;;15.03;8.93;;;14.20;99.90;;;;;;4990218;28;20823;-76
2022/05/03 02:21:17;;;;;;;18.97;9.27;;;14.20;99.90;;;;;;4982092;28;20834;-76
2022/05/03 02:24:18;;;;;;;11.53;9.43;;;14.10;99.90;;;;;;4992234;28;20896;-77
2022/05/03 02:27:09;;;;;;;12.07;9.10;;;14.10;99.90;;;;;;4917918;29;20522;-77
2022/05/03 02:30:03;;;;;;;14.10;10.17;;;14.10;99.90;;;;;;4934272;29;20406;-76
2022/05/03 02:33:01;;;;;;;13.47;8.30;;;14.00;99.90;;;;;;4931830;29;20405;-76
2022/05/03 02:35:34;;;;;;;12.63;9.07;;;14.10;99.90;;;;;;4924713;29;20497;-76
2022/05/03 02:38:05;;;;;;;18.10;9.60;;;14.10;99.90;;;;;;4948074;29;20947;-76
2022/05/03 02:40:49;;;;;;;14.73;9.57;;;14.00;99.90;;;;;;4953225;29;20417;-76
2022/05/03 02:43:17;;;;;;;15.37;9.10;;;14.00;99.90;;;;;;4933632;29;20415;-76
2022/05/03 02:45:57;;;;;;;17.93;10.17;;;14.00;99.90;;;;;;4934665;29;20414;-76
2022/05/03 02:48:55;;;;;;;13.73;9.10;;;14.00;99.90;;;;;;4948174;29;20475;-77
2022/05/03 02:51:36;;;;;;;10.57;8.47;;;14.00;99.90;;;;;;4943426;29;20466;-76
2022/05/03 02:54:20;;;;;;;20.67;9.80;;;13.90;99.90;;;;;;4950362;29;20411;-76
2022/05/03 02:57:06;;;;;;;17.33;8.67;;;13.90;99.90;;;;;;4936275;29;20508;-76
2022/05/03 03:02:36;;;;;;;15.27;9.10;;;14.00;99.90;;;;;;4961977;28;20469;-76
2022/05/03 03:05:12;;;;;;;16.17;8.70;;;14.00;99.90;;;;;;4986146;28;20455;-76
2022/05/03 03:07:52;;;;;;;14.30;9.33;;;14.00;99.90;;;;;;4988725;28;20439;-86
2022/05/03 03:10:22;;;;;;;15.00;9.63;;;14.00;99.90;;;;;;4995283;28;20508;-86
2022/05/03 03:13:34;;;;;;;16.07;9.17;;;14.00;99.90;;;;;;5068804;28;20452;-87
2022/05/03 03:16:26;;;;;;;12.23;9.10;;;14.00;99.90;;;;;;5075252;28;20395;-86
2022/05/03 03:25:38;;;;;;;12.00;9.20;;;14.00;99.90;;;;;;5069022;28;20464;-86
2022/05/03 03:31:46;;;;;;;13.10;9.87;;;14.00;99.90;;;;;;5076007;28;20460;-87
2022/05/03 03:37:34;;;;;;;11.33;8.93;;;14.00;99.90;;;;;;5069945;28;20413;-76
2022/05/03 03:40:05;;;;;;;13.17;9.20;;;13.90;99.90;;;;;;5076067;28;20440;-76
2022/05/03 03:42:31;;;;;;;14.60;9.27;;;13.90;99.90;;;;;;5075333;28;20486;-76
2022/05/03 03:45:14;;;;;;;12.97;9.97;;;14.00;99.90;;;;;;5075514;28;20718;-76
2022/05/03 03:47:42;;;;;;;12.87;9.27;;;14.00;99.90;;;;;;5072876;28;20395;-76
2022/05/03 03:50:10;;;;;;;11.90;8.70;;;13.90;99.90;;;;;;5075219;28;20420;-75
2022/05/03 03:52:47;;;;;;;17.00;10.13;;;14.00;99.90;;;;;;5061976;28;20417;-77
2022/05/03 03:55:13;;;;;;;13.37;9.67;;;14.00;99.90;;;;;;5075137;28;20405;-76
2022/05/03 03:57:40;;;;;;;13.57;9.50;;;14.00;99.90;;;;;;5074695;28;20421;-77
2022/05/03 04:00:13;;;;;;;13.77;9.87;;;14.00;99.90;;;;;;5090962;28;20224;-76
2022/05/03 04:02:46;;;;;;;14.30;9.40;;;14.00;99.90;;;;;;5061761;28;20923;-76
2022/05/03 04:05:22;;;;;;;12.37;9.80;;;13.90;99.90;;;;;;5075112;28;20386;-76
2022/05/03 04:07:57;;;;;;;19.53;10.13;;;13.90;99.90;;;;;;5074486;28;20441;-76
2022/05/03 04:10:40;;;;;;;12.50;9.67;;;13.90;99.90;;;;;;5071046;28;20428;-77
2022/05/03 04:13:16;;;;;;;12.57;9.80;;;13.90;99.90;;;;;;5067514;28;20486;-76
2022/05/03 04:15:53;;;;;;;13.70;9.33;;;13.90;99.90;;;;;;5067540;28;20453;-77
2022/05/03 04:18:45;;;;;;;16.43;9.60;;;13.90;99.90;;;;;;5055702;28;20410;-77
2022/05/03 04:21:27;;;;;;;13.50;9.40;;;13.90;99.90;;;;;;5074735;28;20792;-77
2022/05/03 04:23:58;;;;;;;16.87;9.93;;;13.90;99.90;;;;;;5062928;28;20953;-76
2022/05/03 04:26:51;;;;;;;14.50;9.10;;;13.90;99.90;;;;;;5074842;28;20801;-76
2022/05/03 04:29:20;;;;;;;12.00;9.60;;;13.90;99.90;;;;;;5074806;28;20413;-76
2022/05/03 04:31:46;;;;;;;15.80;9.70;;;13.90;99.90;;;;;;5073520;28;20469;-76
2022/05/03 04:34:11;;;;;;;15.27;10.20;;;14.00;99.90;;;;;;5074692;28;20881;-76
2022/05/03 04:37:03;;;;;;;13.90;10.13;;;14.00;99.90;;;;;;5074707;28;20179;-76
2022/05/03 04:39:29;;;;;;;13.83;9.60;;;14.00;99.90;;;;;;5059917;28;20186;-77
2022/05/03 04:42:04;;;;;;;15.80;9.90;;;14.00;99.90;;;;;;5074636;28;20520;-76
2022/05/03 04:44:30;;;;;;;14.13;10.17;;;14.10;99.90;;;;;;5071789;28;21479;-76
2022/05/03 04:46:55;;;;;;;15.93;9.90;;;14.10;99.90;;;;;;5075450;28;20429;-76
2022/05/03 04:49:22;;;;;;;15.33;10.60;;;14.10;99.90;;;;;;5076600;28;20187;-76
2022/05/03 04:51:47;;;;;;;13.60;9.20;;;14.10;99.90;;;;;;5073897;28;20183;-80
2022/05/03 04:54:23;;;;;;;15.27;9.40;;;14.20;99.90;;;;;;5084458;28;20499;-77
2022/05/03 04:57:05;;;;;;;16.93;10.87;;;14.20;99.90;;;;;;5082242;28;20550;-77
2022/05/03 04:59:31;;;;;;;12.40;9.50;;;14.30;99.90;;;;;;5061771;28;20398;-76
2022/05/03 05:01:58;;;;;;;14.70;9.80;;;14.30;99.90;;;;;;5076958;28;20436;-76
2022/05/03 05:04:24;;;;;;;15.30;10.00;;;14.40;99.90;;;;;;5072725;28;20308;-76
2022/05/03 05:06:51;;;;;;;14.43;10.23;;;14.40;99.90;;;;;;5074042;28;20496;-76
2022/05/03 05:09:17;;;;;;;13.27;9.87;;;14.40;99.90;;;;;;5073914;28;20194;-75
2022/05/03 05:11:43;;;;;;;14.83;9.40;;;14.40;99.90;;;;;;5088455;28;20808;-75
2022/05/03 05:14:09;;;;;;;17.47;10.10;;;14.50;99.90;;;;;;5073601;28;20182;-76
2022/05/03 05:16:39;;;;;;;14.60;9.07;;;14.50;99.90;;;;;;5073837;28;20587;-75
2022/05/03 05:19:05;;;;;;;12.67;9.27;;;14.50;99.90;;;;;;5073557;28;20424;-75
2022/05/03 05:21:31;;;;;;;12.27;9.53;;;14.60;99.90;;;;;;5073435;28;20384;-75
2022/05/03 05:23:57;;;;;;;13.50;9.50;;;14.60;99.90;;;;;;5073685;28;20171;-75
2022/05/03 05:26:45;;;;;;;12.67;9.33;;;14.70;99.90;;;;;;5073438;28;20194;-81
2022/05/03 05:29:11;;;;;;;21.80;13.30;;;14.70;99.90;;;;;;5073446;28;20193;-74
2022/05/03 05:31:37;;;;;;;11.80;9.77;;;14.80;99.90;;;;;;5072975;28;20423;-73
2022/05/03 05:34:03;;;;;;;18.57;9.70;;;14.80;99.90;;;;;;5073237;28;20217;-75
2022/05/03 05:36:29;;;;;;;12.00;9.57;;;14.80;99.90;;;;;;5074754;28;20388;-73
2022/05/03 05:38:55;;;;;;;13.93;9.27;;;14.80;99.90;;;;;;5066173;28;20178;-73
2022/05/03 05:41:20;;;;;;;15.57;9.60;;;14.90;99.90;;;;;;5069074;28;20232;-73
2022/05/03 05:43:47;;;;;;;17.20;10.00;;;15.00;99.90;;;;;;5069272;28;20805;-73
2022/05/03 05:46:14;;;;;;;11.40;9.10;;;15.10;99.90;;;;;;5071495;28;20660;-73
2022/05/03 05:48:39;;;;;;;12.03;8.73;;;15.10;99.90;;;;;;5072979;28;20464;-73
2022/05/03 05:51:05;;;;;;;13.57;9.70;;;15.20;99.90;;;;;;5072364;28;20480;-73
2022/05/03 05:53:34;;;;;;;18.47;9.33;;;15.30;99.90;;;;;;5063735;28;20183;-76
2022/05/03 05:56:01;;;;;;;12.73;9.90;;;15.30;99.90;;;;;;5070768;28;20428;-73
2022/05/03 05:58:27;;;;;;;13.63;9.27;;;15.40;99.90;;;;;;5072842;28;20418;-73
2022/05/03 06:00:53;;;;;;;15.07;9.50;;;15.50;99.90;;;;;;5055257;28;20421;-74
2022/05/03 06:03:21;;;;;;;14.23;8.80;;;15.60;99.90;;;;;;5067837;28;20221;-73
2022/05/03 06:05:52;;;;;;;10.83;8.47;;;15.70;99.90;;;;;;5073121;28;20184;-73
2022/05/03 06:08:51;;;;;;;12.87;8.90;;;15.80;99.90;;;;;;5073545;28;20428;-86
2022/05/03 06:11:17;;;;;;;13.87;8.63;;;15.90;99.90;;;;;;5062009;28;20460;-76
2022/05/03 06:13:47;;;;;;;13.97;9.30;;;16.00;99.90;;;;;;5071439;28;20417;-76
2022/05/03 06:16:18;;;;;;;13.50;8.70;;;16.10;99.90;;;;;;5064280;28;20180;-76
2022/05/03 06:18:44;;;;;;;15.60;9.27;;;16.20;99.90;;;;;;5088747;28;20859;-76
2022/05/03 06:21:15;;;;;;;9.70;8.70;;;16.30;99.90;;;;;;5068247;28;20515;-76
2022/05/03 06:27:04;;;;;;;13.90;8.33;;;16.40;99.90;;;;;;5083440;28;20492;-86
2022/05/03 06:32:51;;;;;;;15.00;9.73;;;16.60;99.90;;;;;;5071348;28;20464;-86
2022/05/03 06:38:42;;;;;;;16.37;9.13;;;16.90;99.90;;;;;;5064744;28;20368;-86
2022/05/03 06:41:22;;;;;;;14.37;9.27;;;16.90;99.90;;;;;;5069795;28;20908;-76
2022/05/03 06:43:47;;;;;;;14.90;8.80;;;17.00;99.90;;;;;;5090928;28;20434;-76
2022/05/03 06:46:22;;;;;;;14.60;8.27;;;17.10;99.90;;;;;;5076266;28;20414;-76
2022/05/03 06:48:52;;;;;;;17.20;9.47;;;17.20;99.90;;;;;;5076619;28;20176;-77
2022/05/03 06:51:27;;;;;;;16.70;8.90;;;17.40;99.90;;;;;;5070186;28;20488;-77
2022/05/03 06:53:54;;;;;;;13.67;8.17;;;17.50;99.90;;;;;;5075095;28;20434;-76
2022/05/03 06:56:20;;;;;;;15.50;8.80;;;17.70;99.90;;;;;;5071836;28;20415;-76
2022/05/03 06:58:45;;;;;;;18.63;9.80;;;17.80;99.90;;;;;;5073241;28;20430;-76
2022/05/03 07:01:16;;;;;;;17.33;8.90;;;17.90;99.90;;;;;;5083437;28;20187;-76
2022/05/03 07:03:42;;;;;;;14.63;9.20;;;17.90;99.90;;;;;;5076387;28;20476;-76
2022/05/03 07:06:09;;;;;;;18.30;8.77;;;18.00;99.90;;;;;;5064775;28;20426;-76
2022/05/03 07:08:41;;;;;;;12.63;8.80;;;18.20;99.90;;;;;;5076526;28;20439;-77
2022/05/03 07:14:46;;;;;;;13.33;9.20;;;18.40;99.90;;;;;;5062746;28;20494;-86
2022/05/03 07:26:22;;;;;;;10.50;7.90;;;18.90;99.90;;;;;;5065756;28;20443;-76
2022/05/03 07:28:52;;;;;;;12.83;8.23;;;19.00;99.90;;;;;;5073878;28;20423;-77
2022/05/03 07:31:45;;;;;;;13.43;8.20;;;19.20;99.90;;;;;;5075000;28;20449;-76
2022/05/03 07:34:15;;;;;;;12.53;8.60;;;19.30;99.90;;;;;;5064856;28;21013;-76
2022/05/03 07:36:45;;;;;;;11.90;8.73;;;19.30;99.90;;;;;;5072484;28;20974;-76
2022/05/03 07:39:11;;;;;;;12.33;8.50;;;19.30;99.90;;;;;;5074188;28;20429;-77
2022/05/03 07:41:40;;;;;;;12.43;8.70;;;19.40;99.90;;;;;;5084901;28;20421;-76
2022/05/03 07:44:09;;;;;;;15.17;8.60;;;19.40;99.90;;;;;;5075500;28;20220;-76
2022/05/03 07:46:46;;;;;;;21.80;9.47;;;19.50;99.90;;;;;;5074460;28;20426;-76
2022/05/03 07:49:15;;;;;;;14.30;8.57;;;19.50;99.90;;;;;;5062394;28;20438;-77
2022/05/03 07:51:52;;;;;;;14.10;9.67;;;19.50;99.90;;;;;;5072902;28;20526;-76
2022/05/03 07:54:21;;;;;;;15.50;9.27;;;19.50;99.90;;;;;;5060357;28;20452;-76
2022/05/03 07:57:04;;;;;;;12.10;9.03;;;19.70;99.90;;;;;;5076917;28;20421;-86
2022/05/03 07:59:40;;;;;;;14.20;9.07;;;19.90;99.90;;;;;;5062244;28;20455;-86
2022/05/03 08:05:41;;;;;;;13.20;9.00;;;19.60;99.90;;;;;;5074730;28;20447;-86
2022/05/03 08:11:46;;;;;;;25.17;9.77;;;19.60;99.90;;;;;;5066892;28;20494;-76
2022/05/03 08:14:16;;;;;;;11.80;9.10;;;19.60;99.90;;;;;;5072879;28;20870;-76
2022/05/03 08:16:59;;;;;;;16.07;9.20;;;19.60;99.90;;;;;;5073487;28;20428;-76
2022/05/03 08:19:28;;;;;;;12.77;8.10;;;19.60;99.90;;;;;;5068746;28;20451;-77
2022/05/03 08:21:56;;;;;;;14.13;8.60;;;19.80;99.90;;;;;;5085373;28;20421;-76
2022/05/03 08:24:33;;;;;;;12.00;8.27;;;19.80;99.90;;;;;;5081262;28;20430;-76
2022/05/03 08:27:01;;;;;;;13.83;9.10;;;19.80;99.90;;;;;;5072727;28;20499;-77
2022/05/03 08:29:29;;;;;;;17.33;8.70;;;19.90;99.90;;;;;;5068948;28;20504;-77
2022/05/03 08:32:05;;;;;;;10.87;8.33;;;20.20;99.90;;;;;;5088248;28;20449;-76
2022/05/03 08:34:31;;;;;;;14.47;9.00;;;20.40;99.90;;;;;;5076597;28;20459;-76
2022/05/03 08:42:25;;;;;;;12.40;8.50;;;20.70;99.90;;;;;;5073078;28;20422;-77
2022/05/03 08:44:51;;;;;;;12.80;8.10;;;20.80;99.90;;;;;;5072425;28;20797;-77
2022/05/03 08:47:19;;;;;;;13.10;8.63;;;20.90;99.90;;;;;;5057675;28;20185;-77
2022/05/03 08:50:09;;;;;;;16.53;8.47;;;20.80;99.90;;;;;;5064993;28;20182;-76
2022/05/03 08:52:44;;;;;;;12.57;8.70;;;20.80;99.90;;;;;;5075814;28;20423;-76
2022/05/03 08:55:13;;;;;;;12.20;8.60;;;20.70;99.90;;;;;;5071689;28;21097;-75
2022/05/03 08:57:42;;;;;;;18.97;8.47;;;20.70;99.90;;;;;;5072423;28;20445;-77
2022/05/03 09:00:09;;;;;;;10.83;8.40;;;20.60;99.90;;;;;;5073538;28;20929;-76
2022/05/03 09:02:48;;;;;;;12.60;8.70;;;20.50;99.90;;;;;;5073714;28;20414;-77
2022/05/03 09:05:14;;;;;;;15.30;8.60;;;20.40;99.90;;;;;;5068404;28;20415;-76
2022/05/03 09:08:08;;;;;;;15.47;9.17;;;20.30;99.90;;;;;;5081120;28;20434;-78
2022/05/03 09:10:36;;;;;;;11.43;8.00;;;20.20;99.90;;;;;;5072540;28;20809;-77
2022/05/03 09:13:16;;;;;;;16.00;8.03;;;20.30;99.90;;;;;;5072597;28;20426;-86
2022/05/03 09:15:43;;;;;;;16.37;10.13;;;20.30;99.90;;;;;;5071810;28;20493;-86
2022/05/03 09:18:26;;;;;;;19.07;8.60;;;20.30;99.90;;;;;;5058864;28;20435;-86
2022/05/03 09:23:49;;;;;;;11.40;8.20;;;20.50;99.90;;;;;;5071058;28;20933;-85
2022/05/03 09:26:21;;;;;;;12.53;8.43;;;20.50;99.90;;;;;;5059722;28;20488;-75
2022/05/03 09:28:58;;;;;;;18.73;7.80;;;20.50;99.90;;;;;;5072535;28;20423;-77
2022/05/03 09:31:36;;;;;;;12.37;7.73;;;20.50;99.90;;;;;;5070609;28;20469;-79
2022/05/03 09:34:23;;;;;;;13.40;8.50;;;20.40;99.90;;;;;;5058291;28;21129;-76
2022/05/03 09:37:05;;;;;;;69.50;13.50;;;20.40;99.90;;;;;;5072237;28;20455;-76
2022/05/03 09:39:37;;;;;;;10.27;7.17;;;20.50;99.90;;;;;;5060131;28;20937;-76
2022/05/03 09:42:15;;;;;;;14.63;8.50;;;20.50;99.90;;;;;;5072584;28;20426;-77
2022/05/03 09:44:58;;;;;;;18.90;8.17;;;20.50;99.90;;;;;;5071653;28;20423;-77
2022/05/03 09:47:33;;;;;;;15.40;7.63;;;20.50;99.90;;;;;;5055393;28;20521;-76
2022/05/03 09:50:01;;;;;;;15.50;8.30;;;20.70;99.90;;;;;;5071531;28;20426;-76
2022/05/03 09:52:36;;;;;;;10.90;6.93;;;20.90;99.90;;;;;;5070760;28;20925;-77
2022/05/03 09:55:15;;;;;;;13.37;7.50;;;21.00;99.90;;;;;;5075620;28;20934;-77
2022/05/03 09:57:45;;;;;;;12.57;8.23;;;21.20;99.90;;;;;;5075874;28;20845;-76
2022/05/03 10:00:18;;;;;;;10.03;7.70;;;21.30;99.90;;;;;;5076161;28;20776;-77
2022/05/03 10:02:45;;;;;;;9.43;8.07;;;21.30;99.90;;;;;;5076708;28;20480;-77
2022/05/03 10:05:17;;;;;;;14.13;8.00;;;21.60;99.90;;;;;;5081177;28;20412;-76
2022/05/03 10:07:43;;;;;;;17.00;9.47;;;21.80;99.90;;;;;;5095754;28;20421;-77
2022/05/03 10:10:15;;;;;;;12.00;8.00;;;21.90;99.90;;;;;;5088673;28;20812;-77
2022/05/03 10:12:59;;;;;;;17.30;8.40;;;22.00;99.90;;;;;;5072543;28;20497;-76
2022/05/03 10:21:28;;;;;;;13.73;8.80;;;22.40;99.90;;;;;;5075114;28;20435;-77
2022/05/03 10:24:11;;;;;;;11.03;7.80;;;22.50;99.90;;;;;;5077018;28;20398;-77
2022/05/03 10:27:01;;;;;;;17.40;9.67;;;22.60;99.90;;;;;;5076687;28;20527;-77
2022/05/03 10:30:16;;;;;;;12.93;7.87;;;22.60;99.90;;;;;;5083871;28;20465;-86
2022/05/03 10:33:19;;;;;;;13.23;8.53;;;22.70;99.90;;;;;;5062191;28;20508;-75
2022/05/03 10:35:49;;;;;;;13.30;9.10;;;22.50;99.90;;;;;;5073272;28;20420;-75
2022/05/03 10:38:37;;;;;;;10.00;7.23;;;22.50;99.90;;;;;;5076129;28;20444;-75
2022/05/03 10:41:13;;;;;;;14.53;8.57;;;22.50;99.90;;;;;;5076605;28;20409;-82
2022/05/03 10:43:39;;;;;;;12.77;7.80;;;22.50;99.90;;;;;;5079280;28;20429;-75
2022/05/03 10:46:13;;;;;;;10.63;8.07;;;22.50;99.90;;;;;;5074482;28;21135;-72
2022/05/03 10:48:43;;;;;;;11.53;7.30;;;22.60;99.90;;;;;;5075609;28;20206;-72
2022/05/03 10:51:12;;;;;;;11.37;7.73;;;22.60;99.90;;;;;;5075242;28;20489;-72
2022/05/03 10:54:00;;;;;;;14.33;6.93;;;22.70;99.90;;;;;;5072553;28;20892;-72
2022/05/03 10:56:26;;;;;;;12.53;6.77;;;22.70;99.90;;;;;;5067779;28;20423;-72
2022/05/03 10:59:15;;;;;;;11.97;8.57;;;22.80;99.90;;;;;;5075748;28;20484;-72
2022/05/03 11:02:08;;;;;;;9.90;6.80;;;22.80;99.90;;;;;;5058413;28;20484;-72
2022/05/03 11:04:35;;;;;;;10.43;7.70;;;22.90;99.90;;;;;;5062706;28;20507;-72
2022/05/03 11:07:01;;;;;;;13.03;6.80;;;22.90;99.90;;;;;;5068254;28;20818;-72
2022/05/03 11:09:29;;;;;;;14.23;7.60;;;22.90;99.90;;;;;;5064660;28;20481;-72
2022/05/03 11:12:01;;;;;;;9.00;6.80;;;23.00;99.90;;;;;;5075161;28;20559;-72
2022/05/03 11:14:43;;;;;;;9.53;7.50;;;23.10;99.90;;;;;;5075511;28;20430;-74
2022/05/03 11:17:11;;;;;;;11.00;5.90;;;23.30;99.90;;;;;;5073936;28;20403;-74
2022/05/03 11:19:58;;;;;;;14.13;7.30;;;23.60;99.90;;;;;;5075368;28;20446;-74
2022/05/03 11:22:30;;;;;;;7.67;6.17;;;23.70;99.90;;;;;;5064979;28;20875;-74
2022/05/03 11:25:13;;;;;;;17.87;7.17;;;23.60;99.90;;;;;;5060665;28;20453;-74
2022/05/03 11:27:44;;;;;;;7.90;6.43;;;23.70;99.90;;;;;;5065477;28;20530;-73
2022/05/03 11:30:12;;;;;;;10.03;6.90;;;23.80;99.90;;;;;;5058964;28;20420;-76
2022/05/03 11:32:42;;;;;;;11.47;6.17;;;23.80;99.90;;;;;;5059739;28;20457;-75
2022/05/03 11:35:21;;;;;;;10.50;6.63;;;23.80;99.90;;;;;;5069362;28;20478;-75
2022/05/03 11:37:57;;;;;;;6.40;5.80;;;23.80;99.90;;;;;;5072835;28;20953;-76
2022/05/03 11:40:40;;;;;;;9.37;6.30;;;23.90;99.90;;;;;;5069326;28;20554;-75
2022/05/03 11:43:09;;;;;;;10.20;6.63;;;23.80;99.90;;;;;;5066524;28;20951;-74
2022/05/03 11:49:02;;;;;;;7.93;5.80;;;24.20;99.90;;;;;;5001721;28;20617;-74
2022/05/03 11:57:31;;;;;;;12.07;5.60;;;24.30;99.90;;;;;;5069883;28;20961;-75
2022/05/03 11:59:59;;;;;;;10.33;6.00;;;24.20;99.90;;;;;;5057096;28;20885;-75
2022/05/03 12:02:32;;;;;;;7.47;6.00;;;24.30;99.90;;;;;;5060378;28;20939;-76
2022/05/03 12:05:11;;;;;;;8.60;5.80;;;24.40;99.90;;;;;;5068916;28;20440;-78
2022/05/03 12:07:40;;;;;;;8.37;5.70;;;24.50;99.90;;;;;;5060500;28;20446;-88
2022/05/03 12:10:16;;;;;;;9.57;6.23;;;24.50;99.90;;;;;;5072277;28;20431;-83
2022/05/03 12:12:42;;;;;;;10.53;4.60;;;24.60;99.90;;;;;;5073369;28;20421;-84
2022/05/03 12:15:19;;;;;;;6.13;5.40;;;24.60;99.90;;;;;;5073479;28;20502;-84
2022/05/03 12:17:53;;;;;;;10.63;5.00;;;24.60;99.90;;;;;;5072456;28;20814;-85
2022/05/03 12:20:19;;;;;;;5.93;4.87;;;24.40;99.90;;;;;;5067984;28;20418;-84
2022/05/03 12:22:45;;;;;;;7.27;4.80;;;24.40;99.90;;;;;;5073474;28;20732;-71
2022/05/03 12:25:26;;;;;;;5.90;4.63;;;24.40;99.90;;;;;;5069644;28;20509;-71
2022/05/03 12:27:51;;;;;;;5.97;5.13;;;24.40;99.90;;;;;;5072863;28;20172;-71
2022/05/03 12:30:19;;;;;;;8.40;4.37;;;24.40;99.90;;;;;;5072602;28;20412;-72
2022/05/03 12:32:48;;;;;;;7.03;5.10;;;24.50;99.90;;;;;;5072906;28;20167;-71
2022/05/03 12:35:14;;;;;;;6.80;4.87;;;24.50;99.90;;;;;;5072871;28;20419;-71
2022/05/03 12:37:53;;;;;;;6.63;4.70;;;24.50;99.90;;;;;;5073516;28;20427;-71
2022/05/03 12:40:26;;;;;;;5.60;5.07;;;24.40;99.90;;;;;;5070914;28;20418;-71
2022/05/03 12:42:52;;;;;;;6.07;5.23;;;24.50;99.90;;;;;;5059611;28;20805;-71
2022/05/03 12:45:19;;;;;;;11.60;4.70;;;24.60;99.90;;;;;;5057925;28;20422;-77
2022/05/03 12:47:46;;;;;;;5.80;5.00;;;24.80;99.90;;;;;;5069843;28;20422;-77
2022/05/03 12:50:22;;;;;;;6.60;4.90;;;25.00;99.90;;;;;;5070976;28;20526;-78
2022/05/03 12:52:52;;;;;;;7.90;4.97;;;25.20;99.90;;;;;;5073840;28;20428;-81
2022/05/03 12:55:19;;;;;;;14.83;5.30;;;25.30;99.90;;;;;;5072610;28;20447;-71
2022/05/03 13:00:33;;;;;;;5.93;5.33;;;25.20;99.90;;;;;;5068449;28;20509;-83
2022/05/03 13:03:16;;;;;;;8.47;6.00;;;25.40;99.90;;;;;;5072333;28;20419;-84
2022/05/03 13:05:42;;;;;;;8.37;5.23;;;25.60;99.90;;;;;;5071677;28;20435;-81
2022/05/03 13:08:07;;;;;;;8.00;5.70;;;25.70;99.90;;;;;;5063445;28;20436;-76
2022/05/03 13:10:33;;;;;;;11.60;6.27;;;25.90;99.90;;;;;;5053537;28;20221;-72
2022/05/03 13:13:04;;;;;;;7.90;5.67;;;25.70;99.90;;;;;;5073243;28;20166;-70
2022/05/03 13:15:30;;;;;;;8.47;5.80;;;25.90;99.90;;;;;;5084407;28;20783;-71
2022/05/03 13:17:56;;;;;;;10.60;5.90;;;26.00;99.90;;;;;;5053357;28;20504;-71
2022/05/03 13:20:22;;;;;;;7.40;5.57;;;26.10;99.90;;;;;;5070346;28;20515;-70
2022/05/03 13:22:48;;;;;;;8.53;5.57;;;26.40;99.90;;;;;;5073040;28;20416;-70
2022/05/03 13:25:14;;;;;;;8.87;5.70;;;26.40;99.90;;;;;;5072578;28;20482;-72
2022/05/03 13:27:40;;;;;;;8.23;5.97;;;26.30;99.90;;;;;;5072708;28;20246;-72
2022/05/03 13:30:07;;;;;;;9.00;5.53;;;26.30;99.90;;;;;;5057252;28;20863;-71
2022/05/03 13:32:32;;;;;;;12.50;5.70;;;26.30;99.90;;;;;;5071732;28;20494;-71
2022/05/03 13:40:51;;;;;;;13.13;5.27;;;26.70;99.90;;;;;;5162142;22;20490;-69
2022/05/03 13:43:17;;;;;;;6.17;5.00;;;26.90;99.90;;;;;;5007302;28;20876;-69
2022/05/03 13:45:43;;;;;;;8.00;6.10;;;27.00;99.90;;;;;;5010834;28;20435;-69
2022/05/03 13:48:14;;;;;;;7.40;4.73;;;26.80;99.90;;;;;;5012569;28;20180;-69
2022/05/03 13:50:41;;;;;;;10.90;5.93;;;26.80;99.90;;;;;;5010962;28;20551;-69
2022/05/03 13:53:09;;;;;;;5.90;5.13;;;26.80;99.90;;;;;;5001397;28;20899;-69
2022/05/03 13:55:39;;;;;;;9.30;5.40;;;26.80;99.90;;;;;;5007015;28;21008;-69
2022/05/03 13:58:07;;;;;;;12.67;5.50;;;26.70;99.90;;;;;;5010993;28;20471;-69
2022/05/03 14:00:34;;;;;;;8.47;5.30;;;26.80;99.90;;;;;;5004736;28;20423;-69
2022/05/03 14:03:00;;;;;;;7.73;5.07;;;26.70;99.90;;;;;;5011859;28;20949;-69
2022/05/03 14:05:26;;;;;;;9.17;5.80;;;26.70;99.90;;;;;;5012030;28;20416;-69
2022/05/03 14:07:51;;;;;;;6.03;4.73;;;26.60;99.90;;;;;;5011573;28;20429;-69
2022/05/03 14:10:17;;;;;;;6.90;5.13;;;26.60;99.90;;;;;;5011630;28;20488;-69
2022/05/03 14:12:43;;;;;;;9.23;5.30;;;26.50;99.90;;;;;;5010654;28;20262;-82
2022/05/03 14:15:09;;;;;;;7.47;5.00;;;26.40;99.90;;;;;;5011861;28;20546;-82
2022/05/03 14:17:34;;;;;;;6.67;5.27;;;26.50;99.90;;;;;;5012054;28;20171;-82
2022/05/03 14:20:00;;;;;;;6.53;5.40;;;26.50;99.90;;;;;;5012932;28;20414;-82
2022/05/03 14:22:26;;;;;;;7.47;5.73;;;26.40;99.90;;;;;;4993251;28;20630;-85
2022/05/03 14:24:53;;;;;;;10.90;5.60;;;26.40;99.90;;;;;;5012657;28;20656;-85
2022/05/03 14:27:19;;;;;;;7.60;5.27;;;26.20;99.90;;;;;;5013218;28;20170;-85
2022/05/03 14:29:44;;;;;;;8.60;5.27;;;26.10;99.90;;;;;;4995492;28;20430;-85
2022/05/03 14:32:10;;;;;;;7.73;5.53;;;26.00;99.90;;;;;;5007517;28;20205;-80
2022/05/03 14:34:36;;;;;;;8.17;5.70;;;26.00;99.90;;;;;;5007086;28;20185;-82
2022/05/03 14:37:02;;;;;;;14.90;5.07;;;26.00;99.90;;;;;;4994994;28;20421;-82
2022/05/03 14:39:28;;;;;;;7.90;5.63;;;26.00;99.90;;;;;;5005619;28;20658;-82
2022/05/03 14:41:55;;;;;;;5.60;5.00;;;26.00;99.90;;;;;;5013749;28;20428;-82
2022/05/03 14:44:21;;;;;;;10.70;5.40;;;26.00;99.90;;;;;;5014747;28;20996;-83
2022/05/03 14:46:47;;;;;;;5.87;5.00;;;25.90;99.90;;;;;;4998555;28;20514;-83
2022/05/03 14:49:12;;;;;;;7.93;5.77;;;25.90;99.90;;;;;;5015585;28;20642;-82
2022/05/03 14:51:38;;;;;;;11.73;5.20;;;26.00;99.90;;;;;;4998237;28;20309;-83
2022/05/03 14:54:04;;;;;;;8.67;5.20;;;26.00;99.90;;;;;;5015678;28;20188;-85
2022/05/03 15:04:44;;;;;;;9.77;5.40;;;26.20;99.90;;;;;;5014221;28;20436;-82
2022/05/03 15:07:10;;;;;;;6.77;4.60;;;26.30;99.90;;;;;;5015300;28;20417;-82